Aeroporto :
LOGIN :

Iscrizione | Disclaimer

   EN    FR    IT 

 










Sommario :    VFR   VFR Marginale   IFR   IFR Intensivo   IFR Molto Intensivo
Visibilità : 
Base nubi : 
>= 8 km
>= 3000ft
5 / 8 km
1000 / 3000 ft
1500m / 5 km
500 / 1000 ft
800 / 1500m
200 / 500 ft
< 800m
< 200 ft
Simboli :   Temporali  Nebbia  Neve Forte  Precipitazioni Forti  Vento > 20 kt
SIGMETs :   Varie  Temporali  Ghiacco  Turbolenza  Onda orograficha  Ceneri Vulcaniche






- Altitudine del aeroporto : 465 ft
- Codice IATA : LEJ


EDDP - Leipzig Halle

ULTIMO METAR :
  • 031550Z 32004KT 260V340 9999 BKN045 09/M00 Q1015 NOSIG

METARs OBSOLETI :
  • 031520Z 33004KT 290V360 9999 BKN043 10/M01 Q1015 NOSIG
  • 031450Z 29005KT 260V020 9999 BKN043 10/M00 Q1015 NOSIG
  • 031420Z 26005KT 9999 BKN045 10/M00 Q1015 NOSIG
  • 031350Z 24009KT 210V270 9999 BKN045 09/M01 Q1014 NOSIG
  • 031320Z 25008KT 220V280 9999 BKN045 09/M01 Q1014 NOSIG

TAF TAF EDDP
Valido dal 03 a 12 ore il 04 a 12 ore UTC


031100Z 0312/0412 27011KT 9999 FEW030
BECMG 0316/0318 24005KT
BECMG 0402/0404 30004KT



MetMap, La meteo Aeronautica in un colpo d'occhio ! - Copyright ORBIFLY Dicembre 2007 - Disclaimer

ORBIFLY MET'MAP TEAM :

Programmazione e sviluppo : Alexandra Zaïnal
Concezione : Baudouin d'Aumeries
Aiuto per la programmazione : Marc-Olivier Méhu
Supporto tecnico e logistico : Manuel Goepfert
Aiuto per la traduzione : Arnaldo La Scala

Contatto : metmap@orbifly.com




FONTI E CREDITI :

   NOAA